Time;durP1;ratioP1;P1;durP2;ratioP2;P2;SDS_P1;SDS_P2;PMS_P1;PMS_P2;Temp;Humidity;BMP_temperature;BMP_pressure;BME280_temperature;BME280_humidity;BME280_pressure;Samples;Min_cycle;Max_cycle;Signal;HPM_P1;HPM_P2
2021/09/28 00:01:41;;;;;;;2.15;1.13;;;22.60;60.40;;;;;;5111709;28;20106;-59
2021/09/28 00:04:07;;;;;;;1.17;0.90;;;22.60;60.40;;;;;;5112494;28;20027;-59
2021/09/28 00:06:33;;;;;;;2.78;0.90;;;22.60;60.40;;;;;;5110623;28;20056;-59
2021/09/28 00:08:58;;;;;;;1.05;0.77;;;22.60;60.40;;;;;;5111012;28;20035;-59
2021/09/28 00:11:24;;;;;;;1.33;1.20;;;22.60;60.40;;;;;;5111687;28;20031;-59
2021/09/28 00:13:50;;;;;;;1.23;0.80;;;22.60;60.40;;;;;;5111400;28;20866;-59
2021/09/28 00:16:15;;;;;;;1.95;0.75;;;22.60;60.40;;;;;;5112026;28;20024;-58
2021/09/28 00:18:41;;;;;;;1.45;0.98;;;22.60;60.40;;;;;;5111388;28;20028;-59
2021/09/28 00:21:07;;;;;;;1.75;0.80;;;22.60;60.40;;;;;;5111728;28;20100;-59
2021/09/28 00:23:34;;;;;;;1.95;0.60;;;22.60;60.40;;;;;;5111396;28;20032;-59
2021/09/28 00:25:59;;;;;;;1.35;0.90;;;22.60;60.40;;;;;;5111889;28;20069;-59
2021/09/28 00:28:28;;;;;;;1.83;0.93;;;22.60;60.50;;;;;;5111563;28;20032;-58
2021/09/28 00:30:55;;;;;;;1.35;1.00;;;22.60;60.50;;;;;;5111340;28;20030;-59
2021/09/28 00:33:20;;;;;;;1.10;0.80;;;22.60;60.50;;;;;;5111960;28;20043;-59
2021/09/28 00:35:46;;;;;;;0.82;0.73;;;22.60;60.50;;;;;;5111212;28;20422;-59
2021/09/28 00:38:12;;;;;;;0.85;0.60;;;22.60;60.50;;;;;;5111906;28;20032;-59
2021/09/28 00:40:37;;;;;;;0.90;0.70;;;22.60;60.50;;;;;;5110548;28;20445;-59
2021/09/28 00:43:03;;;;;;;0.95;0.70;;;22.60;60.40;;;;;;5112006;28;20484;-58
2021/09/28 00:45:34;;;;;;;1.38;0.52;;;22.60;60.40;;;;;;5112987;28;20030;-59
2021/09/28 00:48:00;;;;;;;0.93;0.60;;;22.60;60.30;;;;;;5116079;28;20043;-59
2021/09/28 00:50:26;;;;;;;2.42;0.90;;;22.60;60.20;;;;;;5115342;28;20130;-59
2021/09/28 00:52:52;;;;;;;2.38;0.85;;;22.60;60.20;;;;;;5115004;28;20035;-59
2021/09/28 00:55:18;;;;;;;2.45;0.73;;;22.60;60.10;;;;;;5116207;28;20027;-59
2021/09/28 00:57:44;;;;;;;0.95;0.50;;;22.60;60.00;;;;;;5114741;28;20036;-59
2021/09/28 01:00:10;;;;;;;2.05;0.70;;;22.50;59.90;;;;;;5121403;27;20149;-58
2021/09/28 01:02:40;;;;;;;1.38;0.80;;;22.50;59.80;;;;;;5135147;27;20069;-59
2021/09/28 01:05:08;;;;;;;1.23;0.65;;;22.50;59.80;;;;;;5136443;27;20096;-59
2021/09/28 01:07:34;;;;;;;1.13;0.60;;;22.50;59.70;;;;;;5116497;27;20035;-59
2021/09/28 01:10:01;;;;;;;2.13;0.70;;;22.50;59.70;;;;;;5135886;27;20494;-59
2021/09/28 01:12:27;;;;;;;1.15;0.52;;;22.50;59.60;;;;;;5117697;27;20079;-59
2021/09/28 01:14:52;;;;;;;2.20;0.70;;;22.50;59.50;;;;;;5135274;27;20126;-59
2021/09/28 01:17:20;;;;;;;1.02;0.50;;;22.50;59.50;;;;;;5135941;27;20023;-59
2021/09/28 01:19:46;;;;;;;1.20;0.75;;;22.60;59.50;;;;;;5134692;27;20076;-59
2021/09/28 01:22:15;;;;;;;0.68;0.50;;;22.50;59.40;;;;;;5135299;27;20026;-59
2021/09/28 01:24:42;;;;;;;1.25;0.50;;;22.50;59.30;;;;;;5134766;27;20038;-59
2021/09/28 01:27:08;;;;;;;0.82;0.50;;;22.50;59.20;;;;;;5135605;27;20033;-59
2021/09/28 01:29:34;;;;;;;1.35;0.50;;;22.50;59.30;;;;;;5134826;27;20438;-59
2021/09/28 01:32:00;;;;;;;1.42;0.70;;;22.50;59.30;;;;;;5135422;27;20059;-59
2021/09/28 01:34:25;;;;;;;1.25;0.60;;;22.60;59.40;;;;;;5135786;27;20058;-59
2021/09/28 01:36:51;;;;;;;3.03;0.68;;;22.60;59.30;;;;;;5134397;27;20114;-59
2021/09/28 01:39:19;;;;;;;1.98;0.68;;;22.60;59.40;;;;;;5135488;27;20456;-59
2021/09/28 01:41:45;;;;;;;1.55;0.50;;;22.60;59.30;;;;;;5129024;27;20027;-59
2021/09/28 01:44:13;;;;;;;1.90;0.77;;;22.50;59.10;;;;;;5135569;27;20088;-59
2021/09/28 01:46:41;;;;;;;1.08;0.68;;;22.50;59.00;;;;;;5134613;27;20034;-59
2021/09/28 01:49:08;;;;;;;0.90;0.45;;;22.50;59.00;;;;;;5135357;27;20027;-59
2021/09/28 01:51:34;;;;;;;1.02;0.60;;;22.50;58.90;;;;;;5132645;27;20027;-59
2021/09/28 01:54:01;;;;;;;0.95;0.50;;;22.50;58.80;;;;;;5134686;27;20042;-59
2021/09/28 01:56:27;;;;;;;1.95;0.60;;;22.50;58.80;;;;;;5134882;27;20023;-59
2021/09/28 01:58:54;;;;;;;0.98;0.50;;;22.50;58.60;;;;;;5133177;27;20071;-59
2021/09/28 02:01:21;;;;;;;2.53;0.88;;;22.50;58.60;;;;;;5134432;27;20531;-59
2021/09/28 02:03:46;;;;;;;0.68;0.50;;;22.50;58.60;;;;;;5133596;27;20027;-58
2021/09/28 02:06:14;;;;;;;0.70;0.50;;;22.50;58.60;;;;;;5134426;27;20030;-58
2021/09/28 02:08:40;;;;;;;0.68;0.45;;;22.50;58.60;;;;;;5133653;27;20042;-59
2021/09/28 02:11:05;;;;;;;1.55;0.68;;;22.50;58.50;;;;;;5134406;27;20023;-59
2021/09/28 02:13:34;;;;;;;0.68;0.60;;;22.50;58.50;;;;;;5134534;27;20062;-59
2021/09/28 02:16:00;;;;;;;1.15;0.50;;;22.50;58.30;;;;;;5134959;27;20076;-59
2021/09/28 02:18:26;;;;;;;1.25;0.60;;;22.50;58.40;;;;;;5134880;27;20034;-59
2021/09/28 02:20:52;;;;;;;1.50;0.50;;;22.50;58.50;;;;;;5133513;27;20023;-59
2021/09/28 02:23:17;;;;;;;1.25;0.40;;;22.50;58.40;;;;;;5134446;27;20027;-59
2021/09/28 02:25:43;;;;;;;1.92;0.63;;;22.50;58.30;;;;;;5133473;27;20072;-59
2021/09/28 02:28:09;;;;;;;1.95;0.75;;;22.50;58.20;;;;;;5114109;28;20059;-59
2021/09/28 02:30:35;;;;;;;0.88;0.50;;;22.50;58.20;;;;;;5127593;27;20031;-59
2021/09/28 02:33:00;;;;;;;0.85;0.52;;;22.50;58.20;;;;;;5134315;27;20458;-59
2021/09/28 02:35:26;;;;;;;1.52;0.47;;;22.50;58.10;;;;;;5134657;27;20024;-59
2021/09/28 02:37:52;;;;;;;1.92;0.50;;;22.50;58.20;;;;;;5133321;27;20022;-59
2021/09/28 02:40:18;;;;;;;1.38;0.68;;;22.50;58.20;;;;;;5134561;27;20034;-59
2021/09/28 02:42:43;;;;;;;1.25;0.80;;;22.50;58.10;;;;;;5133549;27;20023;-59
2021/09/28 02:45:10;;;;;;;2.28;0.70;;;22.50;58.20;;;;;;5134425;27;20027;-59
2021/09/28 02:47:36;;;;;;;0.90;0.50;;;22.50;58.10;;;;;;5133214;27;20031;-59
2021/09/28 02:50:03;;;;;;;3.38;1.10;;;22.50;58.00;;;;;;5133995;27;20031;-59
2021/09/28 02:52:28;;;;;;;2.08;0.60;;;22.50;58.00;;;;;;5132433;27;20034;-59
2021/09/28 02:54:54;;;;;;;1.95;0.77;;;22.50;57.90;;;;;;5127985;27;20212;-59
2021/09/28 02:57:20;;;;;;;2.70;0.50;;;22.50;57.90;;;;;;5133541;27;20391;-59
2021/09/28 02:59:46;;;;;;;1.02;0.50;;;22.50;58.00;;;;;;5132709;27;20029;-59
2021/09/28 03:02:12;;;;;;;1.42;0.50;;;22.50;58.00;;;;;;5133417;27;20034;-58
2021/09/28 03:04:38;;;;;;;2.20;0.95;;;22.50;57.90;;;;;;5133018;27;20078;-59
2021/09/28 03:07:04;;;;;;;1.65;0.57;;;22.50;58.00;;;;;;5133600;27;20075;-59
2021/09/28 03:09:29;;;;;;;2.03;0.70;;;22.50;58.00;;;;;;5132531;27;20529;-59
2021/09/28 03:11:55;;;;;;;0.90;0.60;;;22.50;57.90;;;;;;5114064;27;20196;-59
2021/09/28 03:14:22;;;;;;;1.23;0.50;;;22.50;57.90;;;;;;5133686;27;20027;-59
2021/09/28 03:16:48;;;;;;;1.40;0.60;;;22.50;58.00;;;;;;5132551;27;20031;-59
2021/09/28 03:19:15;;;;;;;1.73;1.58;;;22.50;57.90;;;;;;5133343;27;20032;-59
2021/09/28 03:21:41;;;;;;;1.98;0.60;;;22.50;57.90;;;;;;5132728;27;20031;-59
2021/09/28 03:24:07;;;;;;;3.00;0.60;;;22.50;57.90;;;;;;5133401;27;20031;-59
2021/09/28 03:26:33;;;;;;;2.72;0.90;;;22.50;57.80;;;;;;5132600;27;20394;-58
2021/09/28 03:28:58;;;;;;;1.42;0.60;;;22.50;57.90;;;;;;5132699;27;20027;-59
2021/09/28 03:31:24;;;;;;;1.40;0.50;;;22.50;57.80;;;;;;5133000;27;20543;-59
2021/09/28 03:33:50;;;;;;;2.25;0.60;;;22.50;57.90;;;;;;5132661;27;20586;-59
2021/09/28 03:36:16;;;;;;;1.65;0.60;;;22.50;57.90;;;;;;5132974;27;20042;-58
2021/09/28 03:38:42;;;;;;;1.10;0.45;;;22.50;57.80;;;;;;5132524;27;20107;-59
2021/09/28 03:41:08;;;;;;;3.38;0.50;;;22.50;57.80;;;;;;5132727;27;20471;-59
2021/09/28 03:43:33;;;;;;;0.73;0.45;;;22.50;57.80;;;;;;5132963;27;20472;-59
2021/09/28 03:45:59;;;;;;;1.13;0.60;;;22.50;57.80;;;;;;5132341;27;20037;-59
2021/09/28 03:48:25;;;;;;;2.47;0.70;;;22.50;57.80;;;;;;5133412;27;20039;-59
2021/09/28 03:50:51;;;;;;;1.58;0.70;;;22.50;57.80;;;;;;5131730;27;20027;-59
2021/09/28 03:53:16;;;;;;;1.48;0.60;;;22.50;57.80;;;;;;5133005;27;20031;-59
2021/09/28 03:55:42;;;;;;;1.23;0.60;;;22.40;57.70;;;;;;5131866;27;20050;-59
2021/09/28 03:58:08;;;;;;;0.50;0.40;;;22.50;57.70;;;;;;5132656;27;20032;-59
2021/09/28 04:00:37;;;;;;;2.40;0.57;;;22.40;57.70;;;;;;5132763;27;20059;-59
2021/09/28 04:03:06;;;;;;;1.83;0.60;;;22.50;57.90;;;;;;5132553;27;20080;-59
2021/09/28 04:05:33;;;;;;;2.85;1.00;;;22.50;57.70;;;;;;5114240;27;20428;-59
2021/09/28 04:07:59;;;;;;;1.25;0.65;;;22.40;57.70;;;;;;5132030;27;20409;-59
2021/09/28 04:10:25;;;;;;;1.70;0.68;;;22.40;57.80;;;;;;5132240;27;20027;-58
2021/09/28 04:12:51;;;;;;;1.77;0.77;;;22.40;57.70;;;;;;5111233;28;20031;-59
2021/09/28 04:15:20;;;;;;;2.05;0.75;;;22.40;57.70;;;;;;5123018;27;20476;-59
2021/09/28 04:17:46;;;;;;;1.10;0.50;;;22.50;57.80;;;;;;5131697;28;20106;-59
2021/09/28 04:20:11;;;;;;;1.00;0.50;;;22.40;57.70;;;;;;5132376;27;20114;-59
2021/09/28 04:22:39;;;;;;;1.58;0.70;;;22.40;57.70;;;;;;5132291;28;20084;-59
2021/09/28 04:25:05;;;;;;;0.95;0.73;;;22.50;57.70;;;;;;5132026;28;20024;-59
2021/09/28 04:27:32;;;;;;;3.20;0.60;;;22.40;57.70;;;;;;5132493;28;20090;-59
2021/09/28 04:29:57;;;;;;;1.70;0.40;;;22.50;57.80;;;;;;5131755;28;20148;-59
2021/09/28 04:32:23;;;;;;;1.35;0.73;;;22.50;57.70;;;;;;5131546;28;20488;-59
2021/09/28 04:34:49;;;;;;;1.55;0.57;;;22.40;57.60;;;;;;5130478;28;20459;-59
2021/09/28 04:37:14;;;;;;;1.17;0.55;;;22.40;57.70;;;;;;5131266;28;20035;-58
2021/09/28 04:39:40;;;;;;;2.60;0.85;;;22.40;57.70;;;;;;5129692;28;20023;-59
2021/09/28 04:42:06;;;;;;;2.50;0.68;;;22.40;57.60;;;;;;5112301;28;20156;-59
2021/09/28 04:44:32;;;;;;;1.75;0.70;;;22.40;57.70;;;;;;5130890;28;20384;-59
2021/09/28 04:46:57;;;;;;;0.90;0.60;;;22.40;57.70;;;;;;5130005;28;20030;-59
2021/09/28 04:49:23;;;;;;;1.05;0.55;;;22.40;57.60;;;;;;5130773;28;20027;-59
2021/09/28 04:51:49;;;;;;;2.42;1.25;;;22.50;57.70;;;;;;5129992;28;20023;-59
2021/09/28 04:54:15;;;;;;;1.80;0.65;;;22.40;57.70;;;;;;5129989;28;20064;-59
2021/09/28 04:56:44;;;;;;;0.77;0.60;;;22.40;57.70;;;;;;5130018;28;20428;-59
2021/09/28 04:59:10;;;;;;;1.77;0.77;;;22.40;57.60;;;;;;5128085;28;20497;-58
2021/09/28 05:01:40;;;;;;;1.08;0.50;;;22.40;57.60;;;;;;5131122;28;20047;-59
2021/09/28 05:04:06;;;;;;;1.67;0.63;;;22.40;57.70;;;;;;5131588;28;20019;-59
2021/09/28 05:06:32;;;;;;;1.75;0.70;;;22.40;57.70;;;;;;5130345;28;20041;-59
2021/09/28 05:08:58;;;;;;;0.95;0.60;;;22.40;57.70;;;;;;5112217;28;20031;-59
2021/09/28 05:11:24;;;;;;;2.60;0.60;;;22.40;57.60;;;;;;5130807;28;20034;-59
2021/09/28 05:13:50;;;;;;;2.47;0.80;;;22.40;57.60;;;;;;5130684;28;20110;-59
2021/09/28 05:16:17;;;;;;;1.98;0.70;;;22.40;57.60;;;;;;5130893;28;20452;-58
2021/09/28 05:18:43;;;;;;;1.70;0.73;;;22.40;57.60;;;;;;5115716;28;20536;-59
2021/09/28 05:21:10;;;;;;;2.10;0.75;;;22.40;57.60;;;;;;5130676;28;20023;-58
2021/09/28 05:23:36;;;;;;;2.45;0.60;;;22.40;57.60;;;;;;5131165;28;20076;-58
2021/09/28 05:26:01;;;;;;;4.75;0.88;;;22.50;57.60;;;;;;5130007;28;20476;-59
2021/09/28 05:28:27;;;;;;;4.25;0.88;;;22.50;60.40;;;;;;5130531;28;20034;-59
2021/09/28 05:30:54;;;;;;;4.28;0.90;;;22.50;58.30;;;;;;5130765;28;20027;-63
2021/09/28 05:33:21;;;;;;;2.75;1.00;;;22.50;54.60;;;;;;5134014;27;20035;-58
2021/09/28 05:35:46;;;;;;;5.22;0.90;;;22.20;54.50;;;;;;5134722;27;20059;-59
2021/09/28 05:38:12;;;;;;;2.55;0.88;;;21.90;54.00;;;;;;5134898;27;20511;-59
2021/09/28 05:40:44;;;;;;;3.25;1.10;;;21.80;54.10;;;;;;5134658;27;20027;-61
2021/09/28 05:43:09;;;;;;;5.30;0.90;;;21.70;53.80;;;;;;5135227;27;20043;-60
2021/09/28 05:45:35;;;;;;;3.53;1.10;;;21.50;54.20;;;;;;5135295;27;20076;-63
2021/09/28 05:48:01;;;;;;;3.53;1.20;;;21.30;54.50;;;;;;5115459;27;20541;-60
2021/09/28 05:50:27;;;;;;;6.47;1.00;;;21.20;55.00;;;;;;5133547;27;20023;-60
2021/09/28 05:52:53;;;;;;;6.93;1.30;;;21.40;58.80;;;;;;5133938;27;20360;-60
2021/09/28 05:55:19;;;;;;;6.22;0.93;;;21.90;58.60;;;;;;5133397;27;20486;-56
2021/09/28 05:57:45;;;;;;;18.13;2.28;;;22.10;57.00;;;;;;5132468;27;20031;-60
2021/09/28 06:00:15;;;;;;;9.90;2.08;;;22.20;58.10;;;;;;5131045;27;20051;-60
2021/09/28 06:02:43;;;;;;;9.52;1.35;;;22.30;58.20;;;;;;5133705;27;20035;-61
2021/09/28 06:05:09;;;;;;;9.80;1.52;;;22.40;57.20;;;;;;5134111;27;20076;-60
2021/09/28 06:07:36;;;;;;;8.90;2.42;;;22.30;57.60;;;;;;5134728;27;20035;-60
2021/09/28 06:10:03;;;;;;;6.15;1.48;;;22.40;57.50;;;;;;5133554;27;20031;-59
2021/09/28 06:12:29;;;;;;;4.85;1.20;;;22.40;57.30;;;;;;5134714;27;20031;-60
2021/09/28 06:14:54;;;;;;;10.38;1.65;;;22.40;57.60;;;;;;5133607;27;20030;-59
2021/09/28 06:17:20;;;;;;;4.25;1.10;;;22.40;58.10;;;;;;5134331;27;20423;-59
2021/09/28 06:19:46;;;;;;;3.63;1.02;;;22.30;57.30;;;;;;5132239;27;20023;-59
2021/09/28 06:22:12;;;;;;;4.45;1.10;;;22.20;55.40;;;;;;5133407;27;20035;-58
2021/09/28 06:24:37;;;;;;;8.02;1.67;;;22.10;54.80;;;;;;5134210;27;20015;-59
2021/09/28 06:27:05;;;;;;;6.03;1.60;;;22.00;55.20;;;;;;5132471;27;20043;-59
2021/09/28 06:29:32;;;;;;;18.02;1.63;;;22.00;54.80;;;;;;5133923;27;20035;-57
2021/09/28 06:31:58;;;;;;;8.55;1.48;;;22.00;54.50;;;;;;5133177;27;20023;-55
2021/09/28 06:34:24;;;;;;;6.45;1.15;;;22.00;54.10;;;;;;5134354;27;20031;-55
2021/09/28 06:36:50;;;;;;;10.07;1.23;;;22.00;53.80;;;;;;5133142;27;20046;-55
2021/09/28 06:39:16;;;;;;;4.35;1.40;;;22.00;54.20;;;;;;5113792;27;20023;-57
2021/09/28 06:41:46;;;;;;;7.95;1.50;;;21.90;53.90;;;;;;5112747;28;20468;-61
2021/09/28 06:44:12;;;;;;;5.43;1.33;;;21.90;54.20;;;;;;5118129;27;20028;-58
2021/09/28 06:46:38;;;;;;;3.95;1.15;;;21.90;54.20;;;;;;5133676;27;20054;-57
2021/09/28 06:49:04;;;;;;;4.65;1.35;;;21.90;53.90;;;;;;5132776;27;20070;-57
2021/09/28 06:51:30;;;;;;;5.18;1.23;;;21.90;53.80;;;;;;5132564;27;20039;-57
2021/09/28 06:53:55;;;;;;;5.43;1.40;;;21.90;53.80;;;;;;5131944;27;20102;-58
2021/09/28 06:56:21;;;;;;;8.43;2.88;;;21.80;53.80;;;;;;5133190;27;20525;-58
2021/09/28 06:58:48;;;;;;;4.95;1.30;;;21.80;53.80;;;;;;5132528;27;20035;-58
2021/09/28 07:01:14;;;;;;;6.10;1.80;;;21.80;53.90;;;;;;5132703;27;20054;-57
2021/09/28 07:03:40;;;;;;;7.25;2.00;;;21.80;54.00;;;;;;5133292;27;20023;-57
2021/09/28 07:06:07;;;;;;;8.13;1.98;;;21.80;54.10;;;;;;5132746;27;20058;-57
2021/09/28 07:08:33;;;;;;;9.07;1.85;;;21.80;54.20;;;;;;5133015;27;20035;-55
2021/09/28 07:10:59;;;;;;;6.97;2.30;;;21.80;54.10;;;;;;5132041;27;20027;-56
2021/09/28 07:13:24;;;;;;;5.38;2.00;;;21.80;53.80;;;;;;5132664;27;20055;-58
2021/09/28 07:15:50;;;;;;;5.22;2.10;;;21.80;54.00;;;;;;5132074;27;20023;-55
2021/09/28 07:18:16;;;;;;;5.70;1.95;;;21.80;54.10;;;;;;5133430;27;20058;-55
2021/09/28 07:20:48;;;;;;;7.45;2.10;;;21.80;54.20;;;;;;5133144;27;20494;-60
2021/09/28 07:23:14;;;;;;;6.65;1.75;;;21.70;54.30;;;;;;5133026;27;20043;-55
2021/09/28 07:25:40;;;;;;;6.30;1.77;;;21.80;54.80;;;;;;5133132;27;20027;-56
2021/09/28 07:28:06;;;;;;;6.07;1.45;;;21.90;54.90;;;;;;5132021;27;20506;-56
2021/09/28 07:30:33;;;;;;;8.02;1.70;;;22.00;54.90;;;;;;5132873;27;20035;-56
2021/09/28 07:33:00;;;;;;;7.38;1.45;;;22.10;55.20;;;;;;5132068;27;20030;-56
2021/09/28 07:35:26;;;;;;;4.03;1.38;;;22.10;55.30;;;;;;5133140;27;20031;-58
2021/09/28 07:37:53;;;;;;;5.55;1.63;;;22.20;55.70;;;;;;5132343;27;20023;-56
2021/09/28 07:40:19;;;;;;;3.03;1.10;;;22.20;55.80;;;;;;5132993;27;20094;-56
2021/09/28 07:42:47;;;;;;;5.10;1.63;;;22.20;56.00;;;;;;5126870;27;20437;-60
2021/09/28 07:45:14;;;;;;;3.85;1.50;;;22.20;56.20;;;;;;5132333;27;20027;-56
2021/09/28 07:47:40;;;;;;;5.45;1.95;;;22.20;56.30;;;;;;5132721;27;20038;-56
2021/09/28 07:50:07;;;;;;;5.03;1.63;;;22.20;56.30;;;;;;5131785;27;20771;-58
2021/09/28 07:52:33;;;;;;;4.57;1.42;;;22.20;56.30;;;;;;5132645;27;20054;-58
2021/09/28 07:54:59;;;;;;;3.78;1.50;;;22.20;56.30;;;;;;5131505;27;20031;-57
2021/09/28 07:57:25;;;;;;;5.60;2.00;;;22.20;56.50;;;;;;5132827;27;20478;-56
2021/09/28 07:59:53;;;;;;;6.45;1.33;;;22.30;56.60;;;;;;5131784;27;20567;-58
2021/09/28 08:02:20;;;;;;;8.07;1.50;;;22.30;56.70;;;;;;5132607;27;20043;-55
2021/09/28 08:04:47;;;;;;;4.03;1.65;;;22.30;57.40;;;;;;5132473;27;20406;-59
2021/09/28 08:07:15;;;;;;;6.53;1.52;;;22.30;56.80;;;;;;5131997;27;20062;-55
2021/09/28 08:09:40;;;;;;;3.78;1.17;;;22.30;56.90;;;;;;5132817;27;20039;-56
2021/09/28 08:12:07;;;;;;;3.33;1.10;;;22.30;56.90;;;;;;5130757;27;20088;-58
2021/09/28 08:14:33;;;;;;;3.63;1.25;;;22.30;57.00;;;;;;5131816;27;20119;-56
2021/09/28 08:16:59;;;;;;;4.75;1.10;;;22.30;57.00;;;;;;5113463;28;20114;-57
2021/09/28 08:19:25;;;;;;;4.38;1.52;;;22.30;57.00;;;;;;5132420;28;20035;-56
2021/09/28 08:21:53;;;;;;;2.45;1.15;;;22.30;57.00;;;;;;5131535;28;20031;-58
2021/09/28 08:24:19;;;;;;;2.92;1.42;;;22.30;57.10;;;;;;5131867;28;20039;-57
2021/09/28 08:29:31;;;;;;;4.90;1.52;;;22.30;57.10;;;;;;5132203;28;20038;-56
2021/09/28 08:31:57;;;;;;;3.22;1.17;;;22.30;57.10;;;;;;5131506;28;20023;-56
2021/09/28 08:34:22;;;;;;;3.53;1.05;;;22.30;57.10;;;;;;5132069;28;20038;-56
2021/09/28 08:36:50;;;;;;;3.58;1.65;;;22.40;57.80;;;;;;5120714;28;20392;-59
2021/09/28 08:39:16;;;;;;;4.97;1.35;;;22.40;57.20;;;;;;5112042;28;20024;-55
2021/09/28 08:41:51;;;;;;;3.80;1.38;;;22.40;57.30;;;;;;5127340;28;20064;-56
2021/09/28 08:44:17;;;;;;;2.47;0.90;;;22.40;57.30;;;;;;5124638;28;20031;-57
2021/09/28 08:46:47;;;;;;;1.98;1.20;;;22.30;57.20;;;;;;5131452;28;20042;-56
2021/09/28 08:49:14;;;;;;;3.65;1.20;;;22.40;57.30;;;;;;5132186;28;20029;-56
2021/09/28 08:51:40;;;;;;;2.65;1.20;;;22.40;57.30;;;;;;5132012;28;20494;-56
2021/09/28 08:54:06;;;;;;;3.35;1.15;;;22.40;57.40;;;;;;5131235;28;20134;-56
2021/09/28 08:56:32;;;;;;;4.20;1.20;;;22.40;57.40;;;;;;5131742;28;20035;-55
2021/09/28 08:59:05;;;;;;;4.10;1.20;;;22.40;57.40;;;;;;5131370;28;20080;-56
2021/09/28 09:01:34;;;;;;;4.88;1.20;;;22.40;57.50;;;;;;5131706;28;20111;-56
2021/09/28 09:04:14;;;;;;;2.83;1.58;;;22.40;57.30;;;;;;5130989;28;20027;-56
2021/09/28 09:06:40;;;;;;;3.92;1.23;;;22.40;57.50;;;;;;5133338;27;20492;-56
2021/09/28 09:09:06;;;;;;;3.05;1.35;;;22.40;57.40;;;;;;5135453;27;20023;-56
2021/09/28 09:11:41;;;;;;;4.13;1.20;;;22.40;57.50;;;;;;5136041;27;20383;-55
2021/09/28 09:14:15;;;;;;;2.45;1.10;;;22.40;57.40;;;;;;5134717;27;20031;-56
2021/09/28 09:16:42;;;;;;;3.85;1.40;;;22.40;57.50;;;;;;5134873;27;20035;-55
2021/09/28 09:19:19;;;;;;;4.72;1.30;;;22.40;57.50;;;;;;5135234;27;20317;-56
2021/09/28 09:22:05;;;;;;;3.60;1.10;;;22.40;57.50;;;;;;5135868;27;20060;-56
2021/09/28 09:24:43;;;;;;;2.45;1.10;;;22.40;57.50;;;;;;5135727;27;20023;-56
2021/09/28 09:27:14;;;;;;;2.25;1.20;;;22.40;57.50;;;;;;5134615;27;20119;-56
2021/09/28 09:29:41;;;;;;;4.18;1.10;;;22.40;57.50;;;;;;5135351;27;20023;-56
2021/09/28 09:32:07;;;;;;;2.53;1.10;;;22.40;57.50;;;;;;5134479;27;20078;-55
2021/09/28 09:34:33;;;;;;;2.72;1.48;;;22.40;57.50;;;;;;5135466;27;20026;-55
2021/09/28 09:37:05;;;;;;;3.42;1.50;;;22.40;57.50;;;;;;5134902;27;20031;-56
2021/09/28 09:39:55;;;;;;;2.80;1.17;;;22.40;57.50;;;;;;5115083;28;20032;-56
2021/09/28 09:42:23;;;;;;;2.15;1.20;;;22.40;57.40;;;;;;5130375;27;20027;-57
2021/09/28 09:44:55;;;;;;;2.33;1.20;;;22.40;57.30;;;;;;5135142;27;20035;-61
2021/09/28 09:47:39;;;;;;;;;;;22.40;57.30;;;;;;5135474;27;20031;-58
2021/09/28 09:50:17;;;;;;;2.22;1.20;;;22.40;57.30;;;;;;5134479;27;19950;-56
2021/09/28 09:52:57;;;;;;;3.60;1.08;;;22.40;57.30;;;;;;5135245;27;20029;-56
2021/09/28 09:55:34;;;;;;;4.43;1.55;;;22.40;57.40;;;;;;5134872;27;20031;-58
2021/09/28 09:58:01;;;;;;;2.35;1.10;;;22.40;57.40;;;;;;5134390;27;20027;-55
2021/09/28 10:00:28;;;;;;;2.83;1.10;;;22.40;57.40;;;;;;5135219;27;20126;-56
2021/09/28 10:02:54;;;;;;;3.88;1.70;;;22.50;57.50;;;;;;5134138;27;20437;-57
2021/09/28 10:05:21;;;;;;;2.60;1.15;;;22.50;57.40;;;;;;5134667;27;20062;-55
2021/09/28 10:07:57;;;;;;;2.95;1.20;;;22.50;57.30;;;;;;5134754;27;20076;-55
2021/09/28 10:10:22;;;;;;;3.05;1.25;;;22.50;57.50;;;;;;5134413;27;20392;-55
2021/09/28 10:12:48;;;;;;;2.67;1.20;;;22.50;57.30;;;;;;5134517;27;20086;-54
2021/09/28 10:15:17;;;;;;;3.70;1.75;;;22.40;57.30;;;;;;5134001;27;20031;-56
2021/09/28 10:17:45;;;;;;;3.20;1.15;;;22.50;57.40;;;;;;5133949;27;20038;-56
2021/09/28 10:20:24;;;;;;;3.38;1.30;;;22.50;57.20;;;;;;5133544;27;20471;-56
2021/09/28 10:23:20;;;;;;;3.88;2.75;;;22.50;57.20;;;;;;5134381;27;20023;-60
2021/09/28 10:25:46;;;;;;;4.88;1.38;;;22.50;57.30;;;;;;5134533;27;20035;-56
2021/09/28 10:28:12;;;;;;;3.78;1.02;;;22.50;57.30;;;;;;5133770;27;20173;-56
2021/09/28 10:30:42;;;;;;;2.92;1.10;;;22.50;57.20;;;;;;5134897;27;20103;-56
2021/09/28 10:33:24;;;;;;;2.33;1.13;;;22.50;57.20;;;;;;5133144;27;20049;-56
2021/09/28 10:36:00;;;;;;;1.88;1.13;;;22.50;57.20;;;;;;5133785;27;20034;-59
2021/09/28 10:39:02;;;;;;;3.10;1.23;;;22.50;57.30;;;;;;5134465;27;20472;-55
2021/09/28 10:41:39;;;;;;;2.78;1.02;;;22.50;57.10;;;;;;5090039;27;20502;-55
2021/09/28 10:44:26;;;;;;;2.95;1.30;;;22.40;57.10;;;;;;5132886;27;20476;-56
2021/09/28 10:46:55;;;;;;;10.07;3.65;;;22.50;57.00;;;;;;5133536;27;20039;-60
2021/09/28 10:49:30;;;;;;;2.78;1.30;;;22.50;57.00;;;;;;5134458;27;20371;-57
2021/09/28 10:52:21;;;;;;;1.75;0.90;;;22.50;57.10;;;;;;5133315;27;20034;-55
2021/09/28 10:55:05;;;;;;;1.90;0.85;;;22.50;56.90;;;;;;5120349;27;20030;-56
2021/09/28 10:58:18;;;;;;;2.50;1.00;;;22.50;57.00;;;;;;5134210;27;20127;-56
2021/09/28 11:00:48;;;;;;;1.85;1.00;;;22.50;57.00;;;;;;5030353;28;20052;-56
2021/09/28 11:03:14;;;;;;;2.63;1.00;;;22.50;57.00;;;;;;5121527;27;20030;-58
2021/09/28 11:05:59;;;;;;;2.72;1.15;;;22.50;57.20;;;;;;5126978;27;20079;-55
2021/09/28 11:08:25;;;;;;;4.53;2.05;;;22.50;56.90;;;;;;5133729;27;20024;-56
2021/09/28 11:10:59;;;;;;;1.88;1.40;;;22.50;56.80;;;;;;5133393;27;20054;-60
2021/09/28 11:13:33;;;;;;;2.60;1.23;;;22.50;56.90;;;;;;5132582;27;20107;-56
2021/09/28 11:16:04;;;;;;;3.60;1.10;;;22.50;56.80;;;;;;5132284;27;20087;-55
2021/09/28 11:18:31;;;;;;;2.47;0.98;;;22.50;56.70;;;;;;5136306;27;20465;-55
2021/09/28 11:21:15;;;;;;;2.83;1.10;;;22.50;57.00;;;;;;5133000;27;20377;-53
2021/09/28 11:23:48;;;;;;;3.58;1.50;;;22.50;57.00;;;;;;5133003;27;20038;-55
2021/09/28 11:26:14;;;;;;;4.00;1.02;;;22.50;56.90;;;;;;5132351;27;20110;-55
2021/09/28 11:28:50;;;;;;;5.97;1.42;;;22.50;56.70;;;;;;5133418;27;20111;-55
2021/09/28 11:31:17;;;;;;;2.85;1.20;;;22.50;56.70;;;;;;5132037;27;20459;-55
2021/09/28 11:33:45;;;;;;;2.53;1.20;;;22.50;56.50;;;;;;5131092;27;20038;-55
2021/09/28 11:36:13;;;;;;;3.15;1.17;;;22.40;57.00;;;;;;5132068;27;20055;-56
2021/09/28 11:38:45;;;;;;;2.53;1.20;;;22.40;56.40;;;;;;5132932;27;20038;-55
2021/09/28 11:41:19;;;;;;;2.83;1.15;;;22.40;56.30;;;;;;5132263;27;20112;-57
2021/09/28 11:43:56;;;;;;;2.30;1.20;;;22.40;56.30;;;;;;5132505;27;20031;-57
2021/09/28 11:46:27;;;;;;;3.05;1.30;;;22.40;56.20;;;;;;5112736;28;20034;-55
2021/09/28 11:49:11;;;;;;;2.13;1.10;;;22.40;56.20;;;;;;5112426;28;20023;-59
2021/09/28 11:51:39;;;;;;;3.88;1.30;;;22.40;55.90;;;;;;5113485;28;20023;-55
2021/09/28 11:54:10;;;;;;;4.60;1.27;;;22.40;56.00;;;;;;5131763;27;20061;-55
2021/09/28 11:56:40;;;;;;;2.00;1.05;;;22.40;56.00;;;;;;5133283;27;20027;-55
2021/09/28 11:59:17;;;;;;;2.80;1.30;;;22.50;56.10;;;;;;5131969;27;20107;-54
2021/09/28 12:01:44;;;;;;;4.70;1.42;;;22.50;56.10;;;;;;5132755;27;20142;-56
2021/09/28 12:07:22;;;;;;;2.67;1.27;;;22.50;55.90;;;;;;5132687;27;20124;-60
2021/09/28 12:09:53;;;;;;;3.05;1.48;;;22.50;56.00;;;;;;5130347;27;20342;-57
2021/09/28 12:12:22;;;;;;;3.63;1.25;;;22.50;55.80;;;;;;5131508;27;20031;-53
2021/09/28 12:14:50;;;;;;;3.70;1.25;;;22.50;55.80;;;;;;5132661;27;20031;-56
2021/09/28 12:17:20;;;;;;;2.45;1.40;;;22.50;55.70;;;;;;5131577;27;20091;-56
2021/09/28 12:19:48;;;;;;;3.38;1.30;;;22.50;55.80;;;;;;5132469;27;20027;-57
2021/09/28 12:22:28;;;;;;;2.47;1.40;;;22.50;55.80;;;;;;5131837;27;20686;-56
2021/09/28 12:25:03;;;;;;;2.47;1.30;;;22.60;55.80;;;;;;5132079;28;20092;-60
2021/09/28 12:27:29;;;;;;;3.22;1.38;;;22.60;55.80;;;;;;5131961;28;20123;-56
2021/09/28 12:29:59;;;;;;;2.22;1.17;;;22.60;55.80;;;;;;5132059;28;20035;-59
2021/09/28 12:32:28;;;;;;;2.47;1.27;;;22.60;55.60;;;;;;5132225;28;20066;-58
2021/09/28 12:35:12;;;;;;;2.55;1.30;;;22.50;55.70;;;;;;5132060;28;20387;-59
2021/09/28 12:37:56;;;;;;;7.22;1.73;;;22.60;55.50;;;;;;5119500;28;20031;-56
2021/09/28 12:40:28;;;;;;;3.83;1.38;;;22.60;55.60;;;;;;5131923;28;20035;-58
2021/09/28 12:43:03;;;;;;;2.25;1.38;;;22.60;55.40;;;;;;5135469;27;20035;-59
2021/09/28 12:45:29;;;;;;;4.32;1.67;;;22.60;55.50;;;;;;5136271;27;20399;-56
2021/09/28 12:48:01;;;;;;;2.25;1.23;;;22.60;55.40;;;;;;5136168;27;20467;-60
2021/09/28 12:50:33;;;;;;;1.90;1.50;;;22.60;55.40;;;;;;5136296;27;20068;-56
2021/09/28 12:53:01;;;;;;;3.08;1.58;;;22.60;55.40;;;;;;5135468;27;20023;-58
2021/09/28 12:55:28;;;;;;;5.72;1.55;;;22.60;55.30;;;;;;5117929;27;20027;-56
2021/09/28 12:58:00;;;;;;;2.50;1.48;;;22.60;55.40;;;;;;5136364;27;20038;-60
2021/09/28 13:00:26;;;;;;;3.25;1.67;;;22.60;55.30;;;;;;5135820;27;20036;-55